createdAt,value
2023-02-19T00:01:44.638Z,99317.47
2023-02-19T00:04:15.549Z,99326.88
2023-02-19T00:06:44.053Z,99212.00
2023-02-19T00:09:12.644Z,99330.28
2023-02-19T00:11:40.825Z,99323.88
2023-02-19T00:14:09.420Z,99335.31
2023-02-19T00:16:39.282Z,99331.94
2023-02-19T00:19:09.837Z,99333.53
2023-02-19T00:21:39.042Z,99203.00
2023-02-19T00:24:08.958Z,99323.53
2023-02-19T00:26:36.550Z,99290.09
2023-02-19T00:29:04.473Z,99309.34
2023-02-19T00:31:33.970Z,99289.66
2023-02-19T00:34:04.158Z,99201.31
2023-02-19T00:36:33.855Z,99276.44
2023-02-19T00:39:03.407Z,99260.38
2023-02-19T00:41:31.130Z,99272.44
2023-02-19T00:44:00.345Z,99259.75
2023-02-19T00:46:30.032Z,99270.78
2023-02-19T00:48:58.528Z,99263.56
2023-02-19T00:51:28.689Z,99257.56
2023-02-19T00:53:56.386Z,99276.66
2023-02-19T00:56:25.769Z,99223.13
2023-02-19T00:58:54.149Z,99209.91
2023-02-19T01:01:22.236Z,99289.50
2023-02-19T01:03:50.364Z,99273.13
2023-02-19T01:06:20.231Z,99308.84
2023-02-19T01:08:48.562Z,99315.50
2023-02-19T01:11:17.359Z,99312.53
2023-02-19T01:13:46.172Z,99321.50
2023-02-19T01:16:15.637Z,99309.94
2023-02-19T01:18:43.790Z,99283.50
2023-02-19T01:21:15.826Z,99340.13
2023-02-19T01:23:44.010Z,99279.59
2023-02-19T01:26:16.301Z,99342.34
2023-02-19T01:28:44.355Z,99352.38
2023-02-19T01:31:16.181Z,99337.41
2023-02-19T01:33:46.996Z,99312.81
2023-02-19T01:36:15.409Z,99358.19
2023-02-19T01:38:43.411Z,99362.03
2023-02-19T01:41:13.644Z,99365.63
2023-02-19T01:43:58.473Z,99361.44
2023-02-19T01:46:28.832Z,99351.63
2023-02-19T01:48:58.959Z,99317.41
2023-02-19T01:51:27.745Z,99361.44
2023-02-19T01:53:58.537Z,99374.44
2023-02-19T01:56:27.977Z,99245.63
2023-02-19T01:58:55.740Z,99372.47
2023-02-19T02:01:23.482Z,99366.44
2023-02-19T02:03:53.421Z,99360.63
2023-02-19T02:06:25.022Z,99355.41
2023-02-19T02:09:12.851Z,99359.66
2023-02-19T02:11:43.392Z,99362.84
2023-02-19T02:14:11.195Z,99360.84
2023-02-19T02:16:50.479Z,99349.63
2023-02-19T02:19:44.688Z,99332.44
2023-02-19T02:22:17.836Z,99346.44
2023-02-19T02:25:09.993Z,99345.03
2023-02-19T02:27:50.226Z,99342.19
2023-02-19T02:30:27.006Z,99346.00
2023-02-19T02:33:02.667Z,99348.41
2023-02-19T02:35:35.620Z,99345.84
2023-02-19T02:38:08.758Z,99351.22
2023-02-19T02:40:36.558Z,99363.66
2023-02-19T02:43:04.210Z,99356.22
2023-02-19T02:45:37.252Z,99364.84
2023-02-19T02:48:14.587Z,99369.63
2023-02-19T02:50:47.282Z,99367.59
2023-02-19T02:53:38.523Z,99267.00
2023-02-19T02:56:06.601Z,99396.06
2023-02-19T02:58:35.093Z,99397.88
2023-02-19T03:01:26.717Z,99418.69
2023-02-19T03:04:01.635Z,99418.47
2023-02-19T03:06:32.330Z,99426.50
2023-02-19T03:09:08.343Z,99435.91
2023-02-19T03:11:57.852Z,99432.09
2023-02-19T03:14:48.289Z,99445.13
2023-02-19T03:17:39.187Z,99446.31
2023-02-19T03:20:11.898Z,99412.09
2023-02-19T03:22:41.446Z,99418.28
2023-02-19T03:25:30.566Z,99452.31
2023-02-19T03:28:01.394Z,99474.94
2023-02-19T03:30:32.550Z,99471.56
2023-02-19T03:33:08.223Z,99338.97
2023-02-19T03:35:39.573Z,99467.16
2023-02-19T03:38:12.484Z,99470.53
2023-02-19T03:40:51.214Z,99481.97
2023-02-19T03:43:21.087Z,99476.13
2023-02-19T03:45:56.632Z,99475.13
2023-02-19T03:48:32.894Z,99484.75
2023-02-19T03:51:10.316Z,99498.34
2023-02-19T03:53:50.545Z,99494.75
2023-02-19T03:56:23.446Z,99492.97
2023-02-19T03:58:57.853Z,99501.38
2023-02-19T04:01:31.179Z,99494.56
2023-02-19T04:04:05.656Z,99505.56
2023-02-19T04:06:34.905Z,99505.56
2023-02-19T04:09:05.640Z,99499.75
2023-02-19T04:11:34.012Z,99502.16
2023-02-19T04:14:07.397Z,99496.56
2023-02-19T04:16:38.134Z,99524.78
2023-02-19T04:19:11.853Z,99514.56
2023-02-19T04:21:41.660Z,99528.63
2023-02-19T04:24:13.119Z,99525.22
2023-02-19T04:26:41.771Z,99525.00
2023-02-19T04:29:09.427Z,99535.97
2023-02-19T04:31:37.918Z,99548.78
2023-02-19T04:34:06.936Z,99554.59
2023-02-19T04:36:35.036Z,99493.22
2023-02-19T04:39:02.643Z,99562.78
2023-02-19T04:41:30.258Z,99556.19
2023-02-19T04:43:57.959Z,99563.78
2023-02-19T04:46:25.694Z,99547.72
2023-02-19T04:48:53.522Z,99581.22
2023-02-19T04:51:22.558Z,99600.22
2023-02-19T04:53:50.324Z,99619.66
2023-02-19T04:56:19.046Z,99626.25
2023-02-19T04:58:47.020Z,99643.09
2023-02-19T05:01:15.434Z,99654.47
2023-02-19T05:03:43.509Z,99667.09
2023-02-19T05:06:13.588Z,99671.72
2023-02-19T05:08:42.612Z,99668.06
2023-02-19T05:11:12.072Z,99611.81
2023-02-19T05:13:40.672Z,99694.72
2023-02-19T05:16:13.229Z,99691.78
2023-02-19T05:18:41.726Z,99673.13
2023-02-19T05:21:10.567Z,99697.00
2023-02-19T05:23:38.572Z,99702.13
2023-02-19T05:26:09.408Z,99718.81
2023-02-19T05:28:37.282Z,99733.16
2023-02-19T05:31:06.745Z,99734.34
2023-02-19T05:33:34.788Z,99737.75
2023-02-19T05:36:06.957Z,99745.31
2023-02-19T05:38:34.848Z,99747.13
2023-02-19T05:41:12.443Z,99780.50
2023-02-19T05:43:40.537Z,99749.97
2023-02-19T05:46:09.314Z,99765.59
2023-02-19T05:48:36.796Z,99776.78
2023-02-19T05:51:05.448Z,99774.38
2023-02-19T05:53:33.494Z,99788.72
2023-02-19T05:56:01.285Z,99805.50
2023-02-19T05:58:30.454Z,99808.72
2023-02-19T06:00:58.287Z,99823.47
2023-02-19T06:03:25.935Z,99814.31
2023-02-19T06:05:53.510Z,99818.59
2023-02-19T06:08:21.154Z,99820.44
2023-02-19T06:10:48.750Z,99828.44
2023-02-19T06:13:17.855Z,99838.25
2023-02-19T06:15:47.031Z,99842.56
2023-02-19T06:18:14.695Z,99850.47
2023-02-19T06:20:42.349Z,99864.81
2023-02-19T06:23:09.984Z,99857.09
2023-02-19T06:25:37.987Z,99881.31
2023-02-19T06:28:06.001Z,99886.84
2023-02-19T06:30:33.810Z,99733.03
2023-02-19T06:33:02.760Z,99869.13
2023-02-19T06:35:30.249Z,99861.06
2023-02-19T06:37:57.918Z,99856.44
2023-02-19T06:40:25.635Z,99851.78
2023-02-19T06:42:53.256Z,99839.94
2023-02-19T06:45:20.828Z,99852.16
2023-02-19T06:47:48.557Z,99850.06
2023-02-19T06:50:17.673Z,99841.97
2023-02-19T06:52:45.431Z,99844.72
2023-02-19T06:55:13.097Z,99845.78
2023-02-19T06:57:40.777Z,99834.34
2023-02-19T07:00:10.056Z,99847.84
2023-02-19T07:02:37.642Z,99866.78
2023-02-19T07:05:05.806Z,99826.72
2023-02-19T07:07:34.813Z,99874.47
2023-02-19T07:10:02.776Z,99877.47
2023-02-19T07:12:30.504Z,99881.00
2023-02-19T07:14:58.095Z,99886.16
2023-02-19T07:17:25.726Z,99867.13
2023-02-19T07:19:53.324Z,99895.09
2023-02-19T07:22:20.969Z,99909.72
2023-02-19T07:24:49.925Z,99910.09
2023-02-19T07:27:17.530Z,99910.75
2023-02-19T07:29:45.234Z,99900.19
2023-02-19T07:32:12.880Z,99909.56
2023-02-19T07:34:40.562Z,99927.00
2023-02-19T07:37:08.489Z,99926.09
2023-02-19T07:39:36.140Z,99894.41
2023-02-19T07:42:05.397Z,99926.31
2023-02-19T07:44:33.348Z,99927.28
2023-02-19T07:47:01.040Z,99930.59
2023-02-19T07:49:28.703Z,99934.81
2023-02-19T07:51:56.443Z,99925.03
2023-02-19T07:54:24.090Z,99944.00
2023-02-19T07:56:51.803Z,99965.56
2023-02-19T07:59:21.639Z,99971.81
2023-02-19T08:02:07.071Z,99953.34
2023-02-19T08:04:35.713Z,99966.13
2023-02-19T08:07:05.298Z,99979.28
2023-02-19T08:09:33.126Z,99975.19
2023-02-19T08:12:18.535Z,99992.19
2023-02-19T08:14:47.515Z,99993.63
2023-02-19T08:17:15.176Z,100004.75
2023-02-19T08:19:43.080Z,99986.94
2023-02-19T08:22:10.751Z,99998.88
2023-02-19T08:24:42.831Z,99999.19
2023-02-19T08:27:10.522Z,100002.91
2023-02-19T08:29:38.154Z,99999.38
2023-02-19T08:32:07.269Z,100006.72
2023-02-19T08:34:35.023Z,100016.09
2023-02-19T08:37:02.691Z,100001.66
2023-02-19T08:39:30.373Z,99995.16
2023-02-19T08:41:58.046Z,100001.75
2023-02-19T08:44:25.727Z,99997.03
2023-02-19T08:46:53.364Z,99995.16
2023-02-19T08:49:22.379Z,99971.06
2023-02-19T08:51:50.028Z,99956.75
2023-02-19T08:54:17.715Z,99958.34
2023-02-19T08:56:45.505Z,99953.44
2023-02-19T08:59:13.165Z,99950.25
2023-02-19T09:01:40.846Z,99984.22
2023-02-19T09:04:12.861Z,99969.16
2023-02-19T09:06:41.919Z,99970.88
2023-02-19T09:09:09.775Z,99964.06
2023-02-19T09:11:40.114Z,99974.47
2023-02-19T09:14:08.412Z,99946.91
2023-02-19T09:16:36.476Z,99979.22
2023-02-19T09:19:04.619Z,99963.38
2023-02-19T09:21:32.732Z,99927.22
2023-02-19T09:24:01.861Z,99980.47
2023-02-19T09:26:29.486Z,100006.59
2023-02-19T09:28:57.356Z,100008.94
2023-02-19T09:31:25.706Z,100050.56
2023-02-19T09:33:53.637Z,100080.88
2023-02-19T09:36:21.383Z,100103.38
2023-02-19T09:38:49.071Z,100080.13
2023-02-19T09:41:23.720Z,100115.13
2023-02-19T09:43:51.643Z,100130.78
2023-02-19T09:46:28.509Z,100117.56
2023-02-19T09:49:03.387Z,100120.97
2023-02-19T09:51:33.422Z,100106.16
2023-02-19T09:54:02.416Z,100106.13
2023-02-19T09:56:31.686Z,99997.09
2023-02-19T09:59:01.127Z,100146.88
2023-02-19T10:01:33.383Z,100186.16
2023-02-19T10:04:01.500Z,100225.00
2023-02-19T10:06:30.293Z,100225.44
2023-02-19T10:09:02.012Z,100252.28
2023-02-19T10:11:31.138Z,100262.16
2023-02-19T10:14:09.243Z,100273.34
2023-02-19T10:16:41.877Z,100295.41
2023-02-19T10:19:12.429Z,100325.06
2023-02-19T10:21:40.918Z,100340.78
2023-02-19T10:24:13.589Z,100363.94
2023-02-19T10:26:42.657Z,100375.72
2023-02-19T10:29:11.453Z,100368.25
2023-02-19T10:31:39.060Z,100430.81
2023-02-19T10:34:18.975Z,100450.47
2023-02-19T10:36:50.259Z,100463.03
2023-02-19T10:39:42.170Z,100481.38
2023-02-19T10:42:19.290Z,100514.69
2023-02-19T10:44:50.876Z,100531.41
2023-02-19T10:47:22.395Z,100533.69
2023-02-19T10:49:52.189Z,100544.66
2023-02-19T10:52:24.951Z,100529.09
2023-02-19T10:54:54.401Z,100559.72
2023-02-19T10:57:32.846Z,100559.78
2023-02-19T11:00:03.353Z,100557.00
2023-02-19T11:02:32.638Z,100438.56
2023-02-19T11:05:19.818Z,100571.59
2023-02-19T11:07:50.090Z,100569.28
2023-02-19T11:10:26.534Z,100568.66
2023-02-19T11:12:57.591Z,100596.84
2023-02-19T11:15:29.801Z,100614.91
2023-02-19T11:18:25.765Z,100612.94
2023-02-19T11:20:56.152Z,100620.91
2023-02-19T11:23:29.005Z,100620.09
2023-02-19T11:26:00.080Z,100558.66
2023-02-19T11:28:37.227Z,100599.78
2023-02-19T11:31:21.140Z,100611.56
2023-02-19T11:33:55.287Z,100622.97
2023-02-19T11:36:30.080Z,100638.59
2023-02-19T11:38:59.629Z,100646.56
2023-02-19T11:41:56.380Z,100645.25
2023-02-19T11:44:36.188Z,100652.28
2023-02-19T11:47:29.977Z,100652.94
2023-02-19T11:50:10.254Z,100639.94
2023-02-19T11:52:43.132Z,100644.78
2023-02-19T11:55:19.615Z,100637.06
2023-02-19T11:57:49.662Z,100651.44
2023-02-19T12:00:25.672Z,100649.97
2023-02-19T12:03:23.932Z,100652.19
2023-02-19T12:06:02.541Z,100533.63
2023-02-19T12:09:17.788Z,100651.88
2023-02-19T12:11:59.481Z,100662.06
2023-02-19T12:14:54.951Z,100647.91
2023-02-19T12:17:46.651Z,100672.63
2023-02-19T12:20:24.884Z,100680.94
2023-02-19T12:23:16.055Z,100694.91
2023-02-19T12:25:56.669Z,100708.91
2023-02-19T12:29:05.658Z,100630.41
2023-02-19T12:32:02.120Z,100723.63
2023-02-19T12:34:54.560Z,100741.06
2023-02-19T12:37:38.602Z,100742.34
2023-02-19T12:40:22.037Z,100739.53
2023-02-19T12:43:01.117Z,100743.88
2023-02-19T12:45:36.713Z,100766.03
2023-02-19T12:48:13.402Z,100784.09
2023-02-19T12:50:45.544Z,100725.81
2023-02-19T12:53:31.781Z,100819.56
2023-02-19T12:56:01.555Z,100836.66
2023-02-19T12:58:36.464Z,100852.78
2023-02-19T13:01:07.445Z,100729.41
2023-02-19T13:03:40.359Z,100872.13
2023-02-19T13:06:20.127Z,100881.25
2023-02-19T13:09:06.284Z,100890.47
2023-02-19T13:11:39.571Z,100893.09
2023-02-19T13:14:16.980Z,100911.97
2023-02-19T13:16:49.767Z,100909.69
2023-02-19T13:19:17.577Z,100907.41
2023-02-19T13:22:09.524Z,100866.56
2023-02-19T13:24:41.754Z,100916.38
2023-02-19T13:27:32.749Z,100926.75
2023-02-19T13:30:16.550Z,100923.19
2023-02-19T13:32:56.602Z,100929.69
2023-02-19T13:35:43.224Z,100916.00
2023-02-19T13:38:14.531Z,100902.44
2023-02-19T13:40:43.962Z,100914.34
2023-02-19T13:43:25.740Z,100928.19
2023-02-19T13:45:58.245Z,100937.50
2023-02-19T13:48:28.767Z,100976.38
2023-02-19T13:51:33.794Z,100987.28
2023-02-19T13:54:13.915Z,101029.41
2023-02-19T13:56:41.900Z,101057.56
2023-02-19T13:59:26.434Z,101069.94
2023-02-19T14:02:30.546Z,101089.78
2023-02-19T14:05:01.116Z,101093.03
2023-02-19T14:07:54.999Z,101091.56
2023-02-19T14:11:02.301Z,101111.06
2023-02-19T14:14:11.002Z,101148.16
2023-02-19T14:16:53.369Z,101152.53
2023-02-19T14:19:47.854Z,101137.19
2023-02-19T14:22:52.600Z,101132.22
2023-02-19T14:25:30.135Z,101125.00
2023-02-19T14:28:02.764Z,101141.88
2023-02-19T14:30:32.450Z,101130.66
2023-02-19T14:33:10.646Z,101110.88
2023-02-19T14:35:41.470Z,101102.63
2023-02-19T14:38:17.597Z,101101.81
2023-02-19T14:40:48.376Z,101003.41
2023-02-19T14:43:20.428Z,101083.44
2023-02-19T14:45:51.411Z,101094.00
2023-02-19T14:48:22.924Z,101094.00
2023-02-19T14:50:57.636Z,101109.84
2023-02-19T14:53:27.423Z,101045.88
2023-02-19T14:55:56.552Z,100956.63
2023-02-19T14:58:28.526Z,101087.44
2023-02-19T15:03:32.420Z,101117.59
2023-02-19T15:06:04.521Z,101100.69
2023-02-19T15:08:37.266Z,100934.88
2023-02-19T15:11:10.765Z,101087.31
2023-02-19T15:13:45.454Z,101093.69
2023-02-19T15:16:18.351Z,101091.09
2023-02-19T15:18:49.471Z,101089.59
2023-02-19T15:21:25.364Z,101088.22
2023-02-19T15:23:56.004Z,101081.94
2023-02-19T15:26:29.080Z,101085.72
2023-02-19T15:29:01.031Z,101085.94
2023-02-19T15:31:28.768Z,101110.19
2023-02-19T15:33:57.870Z,101102.09
2023-02-19T15:36:30.945Z,101089.63
2023-02-19T15:39:01.693Z,101093.38
2023-02-19T15:41:33.994Z,101075.06
2023-02-19T15:44:24.319Z,101066.06
2023-02-19T15:46:52.390Z,101067.53
2023-02-19T15:49:30.942Z,100959.13
2023-02-19T15:52:03.407Z,101031.38
2023-02-19T15:54:35.041Z,101096.03
2023-02-19T15:57:08.292Z,101092.22
2023-02-19T15:59:41.488Z,101087.53
2023-02-19T16:02:13.395Z,101087.94
2023-02-19T16:04:45.060Z,101087.44
2023-02-19T16:07:26.686Z,101081.69
2023-02-19T16:10:21.625Z,101100.25
2023-02-19T16:12:57.124Z,101074.50
2023-02-19T16:15:25.222Z,101118.34
2023-02-19T16:17:53.609Z,101113.38
2023-02-19T16:20:25.722Z,101083.53
2023-02-19T16:22:58.629Z,101084.59
2023-02-19T16:25:30.848Z,101078.59
2023-02-19T16:27:59.670Z,101064.28
2023-02-19T16:30:31.909Z,101073.03
2023-02-19T16:33:48.814Z,101064.66
2023-02-19T16:36:26.254Z,101056.56
2023-02-19T16:39:24.652Z,100910.47
2023-02-19T16:42:22.523Z,101050.94
2023-02-19T16:44:50.120Z,101037.34
2023-02-19T16:47:31.900Z,101088.25
2023-02-19T16:50:02.575Z,101051.81
2023-02-19T16:52:32.204Z,101055.00
2023-02-19T16:54:59.883Z,101068.59
2023-02-19T16:57:27.474Z,101058.41
2023-02-19T16:59:55.124Z,101061.75
2023-02-19T17:02:25.585Z,101085.72
2023-02-19T17:04:55.228Z,101093.28
2023-02-19T17:07:23.421Z,101057.16
2023-02-19T17:09:52.477Z,101094.47
2023-02-19T17:12:20.161Z,101110.94
2023-02-19T17:14:47.813Z,101130.19
2023-02-19T17:17:15.479Z,101150.59
2023-02-19T17:19:43.075Z,101170.97
2023-02-19T17:22:13.824Z,101196.84
2023-02-19T17:24:41.641Z,101175.88
2023-02-19T17:27:12.477Z,101165.03
2023-02-19T17:29:40.105Z,101141.34
2023-02-19T17:32:08.208Z,101174.59
2023-02-19T17:34:36.245Z,101180.44
2023-02-19T17:37:03.933Z,101201.72
2023-02-19T17:39:31.605Z,101200.88
2023-02-19T17:41:59.531Z,101207.09
2023-02-19T17:44:28.487Z,101196.91
2023-02-19T17:46:56.160Z,101214.84
2023-02-19T17:49:24.025Z,101220.28
2023-02-19T17:51:51.777Z,101215.97
2023-02-19T17:54:19.542Z,101186.47
2023-02-19T17:56:47.630Z,101198.31
2023-02-19T17:59:17.420Z,101224.13
2023-02-19T18:01:47.221Z,101230.72
2023-02-19T18:04:14.890Z,101228.66
2023-02-19T18:06:43.727Z,101227.03
2023-02-19T18:09:15.228Z,101235.63
2023-02-19T18:11:45.662Z,101248.09
2023-02-19T18:14:13.530Z,101246.84
2023-02-19T18:16:49.822Z,101248.34
2023-02-19T18:19:18.024Z,101250.97
2023-02-19T18:21:45.684Z,101271.06
2023-02-19T18:24:13.391Z,101256.97
2023-02-19T18:26:41.504Z,101268.69
2023-02-19T18:29:09.205Z,101266.28
2023-02-19T18:31:37.983Z,101274.47
2023-02-19T18:34:07.532Z,101268.75
2023-02-19T18:36:35.347Z,101272.84
2023-02-19T18:39:03.347Z,101270.94
2023-02-19T18:41:31.148Z,101262.47
2023-02-19T18:43:59.757Z,101253.94
2023-02-19T18:46:27.365Z,101259.66
2023-02-19T18:48:55.011Z,101250.09
2023-02-19T18:51:24.586Z,101247.25
2023-02-19T18:53:52.266Z,101252.28
2023-02-19T18:56:19.935Z,101262.16
2023-02-19T18:58:50.045Z,101252.03
2023-02-19T19:01:18.082Z,101258.59
2023-02-19T19:03:45.715Z,101242.34
2023-02-19T19:06:13.449Z,101247.41
2023-02-19T19:08:42.431Z,101244.94
2023-02-19T19:11:10.700Z,101256.13
2023-02-19T19:13:38.537Z,101250.50
2023-02-19T19:16:06.515Z,101244.78
2023-02-19T19:18:38.083Z,101240.97
2023-02-19T19:21:06.271Z,101229.25
2023-02-19T19:23:33.956Z,101207.16
2023-02-19T19:26:06.005Z,101199.66
2023-02-19T19:28:33.698Z,101205.53
2023-02-19T19:31:01.560Z,101203.75
2023-02-19T19:33:30.524Z,101192.44
2023-02-19T19:35:58.339Z,101197.88
2023-02-19T19:38:25.984Z,101186.88
2023-02-19T19:40:53.712Z,101191.06
2023-02-19T19:43:22.750Z,101183.44
2023-02-19T19:45:50.373Z,101163.84
2023-02-19T19:48:18.186Z,101158.38
2023-02-19T19:50:46.024Z,101148.56
2023-02-19T19:53:13.818Z,101139.72
2023-02-19T19:55:41.509Z,101096.13
2023-02-19T19:58:09.332Z,101114.34
2023-02-19T20:00:38.420Z,101128.69
2023-02-19T20:03:06.939Z,101079.34
2023-02-19T20:05:34.631Z,101124.97
2023-02-19T20:08:02.294Z,101115.03
2023-02-19T20:10:29.917Z,101118.84
2023-02-19T20:12:57.587Z,101111.78
2023-02-19T20:15:25.442Z,101113.69
2023-02-19T20:17:54.474Z,101112.34
2023-02-19T20:20:22.757Z,101115.19
2023-02-19T20:22:51.694Z,101101.28
2023-02-19T20:25:19.396Z,101089.69
2023-02-19T20:27:48.510Z,101088.19
2023-02-19T20:30:17.838Z,101089.72
2023-02-19T20:32:46.235Z,101083.97
2023-02-19T20:35:17.453Z,101078.13
2023-02-19T20:37:47.961Z,101085.06
2023-02-19T20:40:18.644Z,101011.94
2023-02-19T20:42:46.610Z,101070.50
2023-02-19T20:45:16.613Z,101093.81
2023-02-19T20:47:44.674Z,101057.97
2023-02-19T20:50:13.614Z,101047.06
2023-02-19T20:52:43.008Z,101061.66
2023-02-19T20:55:11.473Z,101054.00
2023-02-19T20:57:39.351Z,101042.31
2023-02-19T21:00:09.158Z,101043.41
2023-02-19T21:02:36.990Z,101033.59
2023-02-19T21:05:05.166Z,100954.22
2023-02-19T21:07:33.236Z,100943.63
2023-02-19T21:10:02.319Z,101010.75
2023-02-19T21:12:30.029Z,101001.47
2023-02-19T21:14:57.899Z,100984.44
2023-02-19T21:17:25.549Z,100991.41
2023-02-19T21:19:53.358Z,100985.66
2023-02-19T21:22:21.071Z,100965.25
2023-02-19T21:24:52.047Z,100975.63
2023-02-19T21:27:21.506Z,100964.44
2023-02-19T21:29:49.276Z,100961.72
2023-02-19T21:32:17.130Z,100815.34
2023-02-19T21:34:44.933Z,100939.41
2023-02-19T21:37:12.620Z,100957.38
2023-02-19T21:39:40.251Z,100953.00
2023-02-19T21:42:08.339Z,100946.19
2023-02-19T21:44:37.812Z,100929.88
2023-02-19T21:47:05.767Z,100923.22
2023-02-19T21:49:33.546Z,100925.25
2023-02-19T21:52:01.336Z,100914.78
2023-02-19T21:54:29.117Z,100900.88
2023-02-19T21:56:56.887Z,100887.13
2023-02-19T21:59:24.845Z,100856.13
2023-02-19T22:01:53.947Z,100862.38
2023-02-19T22:04:24.500Z,100850.66
2023-02-19T22:06:56.237Z,100830.81
2023-02-19T22:09:24.165Z,100825.91
2023-02-19T22:11:52.120Z,100810.91
2023-02-19T22:14:19.763Z,100805.19
2023-02-19T22:16:47.514Z,100787.88
2023-02-19T22:19:17.241Z,100782.31
2023-02-19T22:21:45.708Z,100775.78
2023-02-19T22:24:17.523Z,100715.94
2023-02-19T22:26:45.777Z,100751.94
2023-02-19T22:29:15.472Z,100727.09
2023-02-19T22:31:44.425Z,100726.69
2023-02-19T22:34:13.848Z,100727.03
2023-02-19T22:36:44.207Z,100731.13
2023-02-19T22:39:19.750Z,100641.91
2023-02-19T22:41:47.669Z,100708.00
2023-02-19T22:44:16.052Z,100580.81
2023-02-19T22:46:49.514Z,100695.19
2023-02-19T22:49:18.112Z,100691.50
2023-02-19T22:51:53.104Z,100684.81
2023-02-19T22:54:24.993Z,100679.38
2023-02-19T22:56:53.129Z,100665.44
2023-02-19T22:59:22.064Z,100666.72
2023-02-19T23:01:51.447Z,100619.31
2023-02-19T23:04:20.791Z,100657.00
2023-02-19T23:06:51.248Z,100662.53
2023-02-19T23:09:23.034Z,100611.06
2023-02-19T23:11:51.391Z,100650.41
2023-02-19T23:14:22.247Z,100664.00
2023-02-19T23:16:50.134Z,100664.81
2023-02-19T23:19:18.394Z,100668.84
2023-02-19T23:21:47.042Z,100642.34
2023-02-19T23:24:17.332Z,100652.44
2023-02-19T23:26:45.718Z,100654.78
2023-02-19T23:29:16.544Z,100666.34
2023-02-19T23:31:44.437Z,100670.38
2023-02-19T23:34:12.537Z,100677.44
2023-02-19T23:36:44.080Z,100677.03
2023-02-19T23:39:15.006Z,100662.72
2023-02-19T23:41:48.470Z,100691.13
2023-02-19T23:44:16.431Z,100537.13
2023-02-19T23:46:44.159Z,100677.34
2023-02-19T23:49:11.918Z,100674.75
2023-02-19T23:51:39.697Z,100665.66
2023-02-19T23:54:07.878Z,100683.25
2023-02-19T23:56:36.472Z,100683.34
2023-02-19T23:59:05.701Z,100626.41
